Meteo Giornale » Osservazioni meteo Canada » Timmins Ont
ore: 03:00 - Osservazioni Meteo Timmins Ont
Lat. 48° 34' N Lon. 81° 22' W Alt. 295 metri s.l.m.
18 °C
Molto Nuvoloso
Temp. 24 Ore
8 °C
25 °C
Est/Sud-Est
9.3 Km/h
Dew point 17 °C
Umidità 93 %
Visibilità 24 Km
Il sole sorge alle ore 06:43
Il sole tramonta alle ore 20:07
| Data e Ora | Cielo e Fenomeni | T °C | DP °C | Um. % | Pres. hPa | Vis. km | Vento km/h | |
|---|---|---|---|---|---|---|---|---|
| Oggi h: 03:00 | Molto Nuvoloso | 18 | 17 | 93 | 1012 | 24 | E/SE 9.3 | |
| Oggi h: 02:00 | Molto Nuvoloso | 18 | 17 | 93 | 1012 | 24 | S 11.1 | |
| Oggi h: 01:00 | Coperto | 19 | 17 | 88 | 1012 | 24 | S 16.7 | |
| Oggi h: 00:00 | Coperto | 19 | 17 | 88 | 1014 | 24 | S/SE 9.3 | |
| Ieri h: 23:00 | Coperto | 20 | 17 | 82 | 1014 | 24 | E/SE 9.3 | |
| Ieri h: 22:00 | Coperto | 20 | 17 | 82 | 1014 | 24 | SE 7.4 | |
| Ieri h: 21:00 | Molto Nuvoloso | 20 | 17 | 82 | 1014 | 24 | SE 9.3 | |
| Ieri h: 20:00 | Molto Nuvoloso | 20 | 18 | 88 | 1014 | 24 | N 0 | |
| Ieri h: 19:00 | Molto Nuvoloso | 22 | 17 | 73 | 1014 | 24 | S 7.4 | |
| Ieri h: 18:00 | Molto Nuvoloso | 24 | 17 | 64 | 1015 | 24 | S/SO 9.3 | |
| Ieri h: 17:00 | Molto Nuvoloso | 24 | 16 | 60 | 1015 | 24 | S 13 | |
| Ieri h: 16:00 | Molto Nuvoloso | 24 | 16 | 60 | 1015 | 24 | S 14.8 | |
| Ieri h: 15:00 | Molto Nuvoloso | 25 | 14 | 50 | 1016 | 24 | S 13 | |
| Ieri h: 14:00 | Molto Nuvoloso | 24 | 15 | 57 | 1016 | 24 | SE 11.1 | |
| Ieri h: 13:00 | Molto Nuvoloso | 23 | 16 | 64 | 1016 | 24 | SE 13 | |
| Ieri h: 12:00 | Nuvoloso | 21 | 17 | 77 | 1017 | 24 | S 11.1 | |
| Ieri h: 11:00 | Nuvoloso | 16 | 15 | 93 | 1017 | 24 | N 5.5 | |
| Ieri h: 10:00 | Nuvoloso | 16 | 14 | 87 | 1017 | 24 | S/SO 7.4 | |
| Ieri h: 09:40 | Nuvoloso | 15 | 14 | 93 | 1017 | 24 | S 11.1 | |
| Ieri h: 09:14 | Molto Nuvoloso | 14 | 13 | 93 | 1017 | 24 | S 11.1 | |
| Ieri h: 09:00 | Coperto | 14 | 13 | 93 | 1017 | 24 | S 7.4 | |
| Ieri h: 08:53 | Molto Nuvoloso | 14 | 13 | 93 | 1017 | 24 | S 7.4 | |
| Ieri h: 08:00 | Nuvoloso | 11 | 10 | 93 | 1018 | 24 | N 0 | |
| Ieri h: 07:50 | Nuvoloso | 11 | 10 | 93 | 1018 | 24 | N 3.7 | |
| Ieri h: 07:00 | Poco Nuvoloso | 8 | 8 | 100 | 1017 | 24 | N 3.7 | |
| Ieri h: 06:00 | Sereno | 8 | 8 | 100 | 1017 | 24 | N 5.5 | |
| Ieri h: 05:00 | Sereno | 9 | 9 | 100 | 1018 | 24 | N 3.7 | |



